sensor_id;sensor_type;location;lat;lon;timestamp;temperature;humidity
25951;DHT22;13748;52.240;6.002;2022-07-23T00:00:28;16.60;99.90
25951;DHT22;13748;52.240;6.002;2022-07-23T00:03:03;16.60;99.90
25951;DHT22;13748;52.240;6.002;2022-07-23T00:05:30;16.50;99.90
25951;DHT22;13748;52.240;6.002;2022-07-23T00:08:00;16.40;99.90
25951;DHT22;13748;52.240;6.002;2022-07-23T00:10:27;16.40;99.90
25951;DHT22;13748;52.240;6.002;2022-07-23T00:12:54;16.40;99.90
25951;DHT22;13748;52.240;6.002;2022-07-23T00:15:20;16.30;99.90
25951;DHT22;13748;52.240;6.002;2022-07-23T00:17:47;16.30;99.90
25951;DHT22;13748;52.240;6.002;2022-07-23T00:20:15;16.30;99.90
25951;DHT22;13748;52.240;6.002;2022-07-23T00:22:53;16.20;99.90
25951;DHT22;13748;52.240;6.002;2022-07-23T00:25:22;16.20;99.90
25951;DHT22;13748;52.240;6.002;2022-07-23T00:27:55;16.20;99.90
25951;DHT22;13748;52.240;6.002;2022-07-23T00:30:22;16.10;99.90
25951;DHT22;13748;52.240;6.002;2022-07-23T00:32:52;16.10;99.90
25951;DHT22;13748;52.240;6.002;2022-07-23T00:35:24;16.10;99.90
25951;DHT22;13748;52.240;6.002;2022-07-23T00:37:51;16.00;99.90
25951;DHT22;13748;52.240;6.002;2022-07-23T00:40:19;16.00;99.90
25951;DHT22;13748;52.240;6.002;2022-07-23T00:42:47;15.90;99.90
25951;DHT22;13748;52.240;6.002;2022-07-23T00:45:14;15.80;99.90
25951;DHT22;13748;52.240;6.002;2022-07-23T00:47:43;15.80;99.90
25951;DHT22;13748;52.240;6.002;2022-07-23T00:50:10;15.70;99.90
25951;DHT22;13748;52.240;6.002;2022-07-23T00:52:38;15.90;99.90
25951;DHT22;13748;52.240;6.002;2022-07-23T00:55:06;15.70;99.90
25951;DHT22;13748;52.240;6.002;2022-07-23T00:57:34;15.70;99.90
25951;DHT22;13748;52.240;6.002;2022-07-23T01:00:02;15.70;99.90
25951;DHT22;13748;52.240;6.002;2022-07-23T01:02:29;15.60;99.90
25951;DHT22;13748;52.240;6.002;2022-07-23T01:04:56;15.60;99.90
25951;DHT22;13748;52.240;6.002;2022-07-23T01:07:23;15.60;99.90
25951;DHT22;13748;52.240;6.002;2022-07-23T01:09:51;15.50;99.90
25951;DHT22;13748;52.240;6.002;2022-07-23T01:12:18;15.50;99.90
25951;DHT22;13748;52.240;6.002;2022-07-23T01:14:45;15.40;99.90
25951;DHT22;13748;52.240;6.002;2022-07-23T01:17:19;15.40;99.90
25951;DHT22;13748;52.240;6.002;2022-07-23T01:19:49;15.40;99.90
25951;DHT22;13748;52.240;6.002;2022-07-23T01:22:19;15.40;99.90
25951;DHT22;13748;52.240;6.002;2022-07-23T01:24:47;15.40;99.90
25951;DHT22;13748;52.240;6.002;2022-07-23T01:27:14;15.30;99.90
25951;DHT22;13748;52.240;6.002;2022-07-23T01:29:41;15.30;99.90
25951;DHT22;13748;52.240;6.002;2022-07-23T01:32:08;15.20;99.90
25951;DHT22;13748;52.240;6.002;2022-07-23T01:34:37;15.20;99.90
25951;DHT22;13748;52.240;6.002;2022-07-23T01:37:05;15.20;99.90
25951;DHT22;13748;52.240;6.002;2022-07-23T01:39:32;15.20;99.90
25951;DHT22;13748;52.240;6.002;2022-07-23T01:41:59;15.20;99.90
25951;DHT22;13748;52.240;6.002;2022-07-23T01:44:26;15.10;99.90
25951;DHT22;13748;52.240;6.002;2022-07-23T01:46:53;15.10;99.90
25951;DHT22;13748;52.240;6.002;2022-07-23T01:49:21;15.10;99.90
25951;DHT22;13748;52.240;6.002;2022-07-23T01:51:48;15.10;99.90
25951;DHT22;13748;52.240;6.002;2022-07-23T01:54:29;15.10;99.90
25951;DHT22;13748;52.240;6.002;2022-07-23T01:56:56;15.10;99.90
25951;DHT22;13748;52.240;6.002;2022-07-23T01:59:25;15.00;99.90
25951;DHT22;13748;52.240;6.002;2022-07-23T02:01:53;15.00;99.90
25951;DHT22;13748;52.240;6.002;2022-07-23T02:04:21;15.10;99.90
25951;DHT22;13748;52.240;6.002;2022-07-23T02:06:48;15.10;99.90
25951;DHT22;13748;52.240;6.002;2022-07-23T02:09:16;14.90;99.90
25951;DHT22;13748;52.240;6.002;2022-07-23T02:11:43;14.90;99.90
25951;DHT22;13748;52.240;6.002;2022-07-23T02:14:10;14.90;99.90
25951;DHT22;13748;52.240;6.002;2022-07-23T02:16:37;14.80;99.90
25951;DHT22;13748;52.240;6.002;2022-07-23T02:19:05;14.80;99.90
25951;DHT22;13748;52.240;6.002;2022-07-23T02:21:31;14.90;99.90
25951;DHT22;13748;52.240;6.002;2022-07-23T02:23:58;14.80;99.90
25951;DHT22;13748;52.240;6.002;2022-07-23T02:26:25;14.90;99.90
25951;DHT22;13748;52.240;6.002;2022-07-23T02:28:52;14.70;99.90
25951;DHT22;13748;52.240;6.002;2022-07-23T02:31:22;14.70;99.90
25951;DHT22;13748;52.240;6.002;2022-07-23T02:33:49;14.60;99.90
25951;DHT22;13748;52.240;6.002;2022-07-23T02:36:16;15.20;99.90
25951;DHT22;13748;52.240;6.002;2022-07-23T02:38:43;14.40;99.90
25951;DHT22;13748;52.240;6.002;2022-07-23T02:41:10;15.10;99.90
25951;DHT22;13748;52.240;6.002;2022-07-23T02:43:37;15.10;99.90
25951;DHT22;13748;52.240;6.002;2022-07-23T02:46:04;14.10;99.90
25951;DHT22;13748;52.240;6.002;2022-07-23T02:48:31;14.60;99.90
25951;DHT22;13748;52.240;6.002;2022-07-23T02:51:00;14.50;99.90
25951;DHT22;13748;52.240;6.002;2022-07-23T02:53:27;14.50;99.90
25951;DHT22;13748;52.240;6.002;2022-07-23T02:55:57;14.90;99.90
25951;DHT22;13748;52.240;6.002;2022-07-23T02:58:26;14.10;99.90
25951;DHT22;13748;52.240;6.002;2022-07-23T03:00:53;14.50;99.90
25951;DHT22;13748;52.240;6.002;2022-07-23T03:03:20;14.50;99.90
25951;DHT22;13748;52.240;6.002;2022-07-23T03:05:52;14.40;99.90
25951;DHT22;13748;52.240;6.002;2022-07-23T03:08:19;14.50;99.90
25951;DHT22;13748;52.240;6.002;2022-07-23T03:10:46;14.60;99.90
25951;DHT22;13748;52.240;6.002;2022-07-23T03:13:13;14.70;99.90
25951;DHT22;13748;52.240;6.002;2022-07-23T03:15:40;14.60;99.90
25951;DHT22;13748;52.240;6.002;2022-07-23T03:20:34;14.20;99.90
25951;DHT22;13748;52.240;6.002;2022-07-23T03:23:01;14.20;99.90
25951;DHT22;13748;52.240;6.002;2022-07-23T03:25:31;14.20;99.90
25951;DHT22;13748;52.240;6.002;2022-07-23T03:27:58;14.20;99.90
25951;DHT22;13748;52.240;6.002;2022-07-23T03:30:25;14.10;99.90
25951;DHT22;13748;52.240;6.002;2022-07-23T03:32:52;14.10;99.90
25951;DHT22;13748;52.240;6.002;2022-07-23T03:35:19;14.10;99.90
25951;DHT22;13748;52.240;6.002;2022-07-23T03:37:46;14.10;99.90
25951;DHT22;13748;52.240;6.002;2022-07-23T03:40:13;14.00;99.90
25951;DHT22;13748;52.240;6.002;2022-07-23T03:42:40;14.00;99.90
25951;DHT22;13748;52.240;6.002;2022-07-23T03:45:10;14.00;99.90
25951;DHT22;13748;52.240;6.002;2022-07-23T03:47:37;14.00;99.90
25951;DHT22;13748;52.240;6.002;2022-07-23T03:50:07;14.00;99.90
25951;DHT22;13748;52.240;6.002;2022-07-23T03:52:34;13.90;99.90
25951;DHT22;13748;52.240;6.002;2022-07-23T03:55:02;13.90;99.90
25951;DHT22;13748;52.240;6.002;2022-07-23T03:57:42;13.90;99.90
25951;DHT22;13748;52.240;6.002;2022-07-23T04:00:10;13.90;99.90
25951;DHT22;13748;52.240;6.002;2022-07-23T04:02:38;13.90;99.90
25951;DHT22;13748;52.240;6.002;2022-07-23T04:05:08;13.90;99.90
25951;DHT22;13748;52.240;6.002;2022-07-23T04:07:37;13.80;99.90
25951;DHT22;13748;52.240;6.002;2022-07-23T04:10:05;13.90;99.90
25951;DHT22;13748;52.240;6.002;2022-07-23T04:12:32;13.90;99.90
25951;DHT22;13748;52.240;6.002;2022-07-23T04:14:59;13.90;99.90
25951;DHT22;13748;52.240;6.002;2022-07-23T04:17:26;14.00;99.90
25951;DHT22;13748;52.240;6.002;2022-07-23T04:19:53;13.90;99.90
25951;DHT22;13748;52.240;6.002;2022-07-23T04:22:23;14.00;99.90
25951;DHT22;13748;52.240;6.002;2022-07-23T04:24:50;14.00;99.90
25951;DHT22;13748;52.240;6.002;2022-07-23T04:27:17;14.00;99.90
25951;DHT22;13748;52.240;6.002;2022-07-23T04:29:46;14.00;99.90
25951;DHT22;13748;52.240;6.002;2022-07-23T04:32:13;14.10;99.90
25951;DHT22;13748;52.240;6.002;2022-07-23T04:34:40;14.10;99.90
25951;DHT22;13748;52.240;6.002;2022-07-23T04:37:07;14.10;99.90
25951;DHT22;13748;52.240;6.002;2022-07-23T04:39:34;14.20;99.90
25951;DHT22;13748;52.240;6.002;2022-07-23T04:42:01;14.20;99.90
25951;DHT22;13748;52.240;6.002;2022-07-23T04:44:28;14.20;99.90
25951;DHT22;13748;52.240;6.002;2022-07-23T04:46:55;14.30;99.90
25951;DHT22;13748;52.240;6.002;2022-07-23T04:49:25;14.40;99.90
25951;DHT22;13748;52.240;6.002;2022-07-23T04:51:55;14.40;99.90
25951;DHT22;13748;52.240;6.002;2022-07-23T04:54:22;14.40;99.90
25951;DHT22;13748;52.240;6.002;2022-07-23T04:56:48;14.50;99.90
25951;DHT22;13748;52.240;6.002;2022-07-23T04:59:15;14.60;99.90
25951;DHT22;13748;52.240;6.002;2022-07-23T05:01:43;14.60;99.90
25951;DHT22;13748;52.240;6.002;2022-07-23T05:04:10;14.70;99.90
25951;DHT22;13748;52.240;6.002;2022-07-23T05:06:37;14.70;99.90
25951;DHT22;13748;52.240;6.002;2022-07-23T05:09:03;14.80;99.90
25951;DHT22;13748;52.240;6.002;2022-07-23T05:11:33;14.80;99.90
25951;DHT22;13748;52.240;6.002;2022-07-23T05:14:02;14.90;99.90
25951;DHT22;13748;52.240;6.002;2022-07-23T05:16:29;15.00;99.90
25951;DHT22;13748;52.240;6.002;2022-07-23T05:18:58;15.10;99.90
25951;DHT22;13748;52.240;6.002;2022-07-23T05:21:25;15.10;99.90
25951;DHT22;13748;52.240;6.002;2022-07-23T05:23:52;15.10;99.90
25951;DHT22;13748;52.240;6.002;2022-07-23T05:26:19;15.10;99.90
25951;DHT22;13748;52.240;6.002;2022-07-23T05:28:47;15.20;99.90
25951;DHT22;13748;52.240;6.002;2022-07-23T05:31:16;15.20;99.90
25951;DHT22;13748;52.240;6.002;2022-07-23T05:33:43;15.30;99.90
25951;DHT22;13748;52.240;6.002;2022-07-23T05:36:10;15.40;99.90
25951;DHT22;13748;52.240;6.002;2022-07-23T05:38:40;15.40;99.90
25951;DHT22;13748;52.240;6.002;2022-07-23T05:41:09;15.50;99.90
25951;DHT22;13748;52.240;6.002;2022-07-23T05:43:42;15.50;99.90
25951;DHT22;13748;52.240;6.002;2022-07-23T05:46:11;15.70;99.90
25951;DHT22;13748;52.240;6.002;2022-07-23T05:48:41;16.20;99.90
25951;DHT22;13748;52.240;6.002;2022-07-23T05:51:13;17.20;99.90
25951;DHT22;13748;52.240;6.002;2022-07-23T05:53:47;18.40;99.90
25951;DHT22;13748;52.240;6.002;2022-07-23T05:56:15;19.60;99.90
25951;DHT22;13748;52.240;6.002;2022-07-23T05:58:43;20.80;99.90
25951;DHT22;13748;52.240;6.002;2022-07-23T06:03:49;23.00;99.90
25951;DHT22;13748;52.240;6.002;2022-07-23T06:06:16;24.00;99.90
25951;DHT22;13748;52.240;6.002;2022-07-23T06:08:45;24.80;99.90
25951;DHT22;13748;52.240;6.002;2022-07-23T06:11:12;25.40;99.90
25951;DHT22;13748;52.240;6.002;2022-07-23T06:13:43;26.00;99.90
25951;DHT22;13748;52.240;6.002;2022-07-23T06:18:41;26.90;99.90
25951;DHT22;13748;52.240;6.002;2022-07-23T06:21:08;27.30;99.90
25951;DHT22;13748;52.240;6.002;2022-07-23T06:23:58;27.70;99.90
25951;DHT22;13748;52.240;6.002;2022-07-23T06:26:30;28.20;99.90
25951;DHT22;13748;52.240;6.002;2022-07-23T06:29:00;28.60;99.90
25951;DHT22;13748;52.240;6.002;2022-07-23T06:31:30;28.90;99.90
25951;DHT22;13748;52.240;6.002;2022-07-23T06:34:00;29.10;99.90
25951;DHT22;13748;52.240;6.002;2022-07-23T06:36:27;29.10;99.90
25951;DHT22;13748;52.240;6.002;2022-07-23T06:38:54;29.00;99.90
25951;DHT22;13748;52.240;6.002;2022-07-23T06:41:23;29.20;99.90
25951;DHT22;13748;52.240;6.002;2022-07-23T06:43:56;29.30;99.90
25951;DHT22;13748;52.240;6.002;2022-07-23T06:46:27;29.60;99.30
25951;DHT22;13748;52.240;6.002;2022-07-23T06:48:54;29.70;98.00
25951;DHT22;13748;52.240;6.002;2022-07-23T06:51:21;29.80;97.20
25951;DHT22;13748;52.240;6.002;2022-07-23T06:53:56;29.70;96.70
25951;DHT22;13748;52.240;6.002;2022-07-23T06:56:40;29.60;97.10
25951;DHT22;13748;52.240;6.002;2022-07-23T06:59:34;29.80;96.10
25951;DHT22;13748;52.240;6.002;2022-07-23T07:02:15;30.10;95.70
25951;DHT22;13748;52.240;6.002;2022-07-23T07:04:42;30.00;95.40
25951;DHT22;13748;52.240;6.002;2022-07-23T07:07:12;30.10;95.30
25951;DHT22;13748;52.240;6.002;2022-07-23T07:09:42;30.20;94.20
25951;DHT22;13748;52.240;6.002;2022-07-23T07:12:11;30.40;92.80
25951;DHT22;13748;52.240;6.002;2022-07-23T07:14:38;30.40;93.20
25951;DHT22;13748;52.240;6.002;2022-07-23T07:17:08;30.50;92.10
25951;DHT22;13748;52.240;6.002;2022-07-23T07:19:35;30.70;91.50
25951;DHT22;13748;52.240;6.002;2022-07-23T07:22:02;30.70;91.40
25951;DHT22;13748;52.240;6.002;2022-07-23T07:24:30;30.80;91.20
25951;DHT22;13748;52.240;6.002;2022-07-23T07:27:03;30.70;90.70
25951;DHT22;13748;52.240;6.002;2022-07-23T07:29:30;30.70;90.50
25951;DHT22;13748;52.240;6.002;2022-07-23T07:32:00;30.60;90.70
25951;DHT22;13748;52.240;6.002;2022-07-23T07:34:27;30.80;90.30
25951;DHT22;13748;52.240;6.002;2022-07-23T07:36:54;31.00;90.00
25951;DHT22;13748;52.240;6.002;2022-07-23T07:39:21;31.20;89.40
25951;DHT22;13748;52.240;6.002;2022-07-23T07:41:48;31.10;89.40
25951;DHT22;13748;52.240;6.002;2022-07-23T07:44:15;31.10;89.30
25951;DHT22;13748;52.240;6.002;2022-07-23T07:46:45;31.00;89.40
25951;DHT22;13748;52.240;6.002;2022-07-23T07:49:12;31.10;88.80
25951;DHT22;13748;52.240;6.002;2022-07-23T07:51:59;31.30;88.40
25951;DHT22;13748;52.240;6.002;2022-07-23T07:54:27;31.20;87.20
25951;DHT22;13748;52.240;6.002;2022-07-23T07:56:54;31.10;85.80
25951;DHT22;13748;52.240;6.002;2022-07-23T07:59:21;31.20;86.30
25951;DHT22;13748;52.240;6.002;2022-07-23T08:01:48;31.10;86.10
25951;DHT22;13748;52.240;6.002;2022-07-23T08:04:15;30.80;85.10
25951;DHT22;13748;52.240;6.002;2022-07-23T08:06:42;30.50;86.50
25951;DHT22;13748;52.240;6.002;2022-07-23T08:09:12;30.60;86.60
25951;DHT22;13748;52.240;6.002;2022-07-23T08:11:39;30.70;86.40
25951;DHT22;13748;52.240;6.002;2022-07-23T08:14:06;30.80;84.10
25951;DHT22;13748;52.240;6.002;2022-07-23T08:16:35;30.40;85.60
25951;DHT22;13748;52.240;6.002;2022-07-23T08:19:22;30.00;86.20
25951;DHT22;13748;52.240;6.002;2022-07-23T08:21:50;29.70;88.00
25951;DHT22;13748;52.240;6.002;2022-07-23T08:24:19;29.50;88.10
25951;DHT22;13748;52.240;6.002;2022-07-23T08:26:49;29.30;88.60
25951;DHT22;13748;52.240;6.002;2022-07-23T08:29:19;29.20;88.50
25951;DHT22;13748;52.240;6.002;2022-07-23T08:31:52;29.10;88.70
25951;DHT22;13748;52.240;6.002;2022-07-23T08:34:20;29.10;89.70
25951;DHT22;13748;52.240;6.002;2022-07-23T08:36:56;29.20;89.60
25951;DHT22;13748;52.240;6.002;2022-07-23T08:39:23;29.30;89.70
25951;DHT22;13748;52.240;6.002;2022-07-23T08:42:14;29.20;89.70
25951;DHT22;13748;52.240;6.002;2022-07-23T08:44:45;29.10;89.50
25951;DHT22;13748;52.240;6.002;2022-07-23T08:47:13;28.90;89.20
25951;DHT22;13748;52.240;6.002;2022-07-23T08:49:45;28.70;90.10
25951;DHT22;13748;52.240;6.002;2022-07-23T08:52:13;28.80;90.40
25951;DHT22;13748;52.240;6.002;2022-07-23T08:54:41;28.90;90.40
25951;DHT22;13748;52.240;6.002;2022-07-23T08:57:11;29.10;90.30
25951;DHT22;13748;52.240;6.002;2022-07-23T08:59:41;29.10;90.00
25951;DHT22;13748;52.240;6.002;2022-07-23T09:02:08;29.30;89.40
25951;DHT22;13748;52.240;6.002;2022-07-23T09:04:36;29.50;89.30
25951;DHT22;13748;52.240;6.002;2022-07-23T09:07:03;29.60;87.40
25951;DHT22;13748;52.240;6.002;2022-07-23T09:10:06;29.10;87.30
25951;DHT22;13748;52.240;6.002;2022-07-23T09:12:56;28.50;88.60
25951;DHT22;13748;52.240;6.002;2022-07-23T09:15:23;27.90;90.50
25951;DHT22;13748;52.240;6.002;2022-07-23T09:20:20;27.30;90.60
25951;DHT22;13748;52.240;6.002;2022-07-23T09:22:47;27.30;91.30
25951;DHT22;13748;52.240;6.002;2022-07-23T09:25:17;27.50;91.30
25951;DHT22;13748;52.240;6.002;2022-07-23T09:28:06;27.60;90.60
25951;DHT22;13748;52.240;6.002;2022-07-23T09:30:34;27.30;90.50
25951;DHT22;13748;52.240;6.002;2022-07-23T09:33:14;27.10;90.90
25951;DHT22;13748;52.240;6.002;2022-07-23T09:38:22;26.00;90.90
25951;DHT22;13748;52.240;6.002;2022-07-23T09:41:09;25.60;92.10
25951;DHT22;13748;52.240;6.002;2022-07-23T09:43:36;25.40;93.80
25951;DHT22;13748;52.240;6.002;2022-07-23T09:46:25;25.40;94.40
25951;DHT22;13748;52.240;6.002;2022-07-23T09:48:56;25.70;93.50
25951;DHT22;13748;52.240;6.002;2022-07-23T09:51:24;26.10;92.90
25951;DHT22;13748;52.240;6.002;2022-07-23T09:53:53;26.30;92.40
25951;DHT22;13748;52.240;6.002;2022-07-23T09:56:21;26.30;92.60
25951;DHT22;13748;52.240;6.002;2022-07-23T09:58:54;26.50;93.10
25951;DHT22;13748;52.240;6.002;2022-07-23T10:01:35;26.40;92.80
25951;DHT22;13748;52.240;6.002;2022-07-23T10:04:03;26.30;92.50
25951;DHT22;13748;52.240;6.002;2022-07-23T10:06:31;26.00;93.00
25951;DHT22;13748;52.240;6.002;2022-07-23T10:08:59;25.60;93.40
25951;DHT22;13748;52.240;6.002;2022-07-23T10:11:27;25.50;94.30
25951;DHT22;13748;52.240;6.002;2022-07-23T10:13:55;25.70;93.90
25951;DHT22;13748;52.240;6.002;2022-07-23T10:16:25;26.00;93.90
25951;DHT22;13748;52.240;6.002;2022-07-23T10:19:05;26.40;93.70
25951;DHT22;13748;52.240;6.002;2022-07-23T10:21:46;26.60;93.10
25951;DHT22;13748;52.240;6.002;2022-07-23T10:36:17;27.80;91.30
25951;DHT22;13748;52.240;6.002;2022-07-23T10:39:15;27.80;92.40
25951;DHT22;13748;52.240;6.002;2022-07-23T10:41:44;27.80;92.40
25951;DHT22;13748;52.240;6.002;2022-07-23T10:44:14;27.40;92.00
25951;DHT22;13748;52.240;6.002;2022-07-23T10:47:01;27.40;92.10
25951;DHT22;13748;52.240;6.002;2022-07-23T10:49:49;27.20;93.00
25951;DHT22;13748;52.240;6.002;2022-07-23T10:52:17;27.10;93.60
25951;DHT22;13748;52.240;6.002;2022-07-23T10:57:22;27.30;93.00
25951;DHT22;13748;52.240;6.002;2022-07-23T11:02:36;27.30;91.90
25951;DHT22;13748;52.240;6.002;2022-07-23T11:05:17;27.30;91.10
25951;DHT22;13748;52.240;6.002;2022-07-23T11:24:00;27.30;92.10
25951;DHT22;13748;52.240;6.002;2022-07-23T11:26:53;27.50;91.70
25951;DHT22;13748;52.240;6.002;2022-07-23T11:32:02;27.10;92.10
25951;DHT22;13748;52.240;6.002;2022-07-23T11:37:12;27.30;91.80
25951;DHT22;13748;52.240;6.002;2022-07-23T11:39:56;27.10;92.20
25951;DHT22;13748;52.240;6.002;2022-07-23T11:42:24;26.90;92.50
25951;DHT22;13748;52.240;6.002;2022-07-23T11:44:56;26.90;92.60
25951;DHT22;13748;52.240;6.002;2022-07-23T11:47:26;27.10;92.40
25951;DHT22;13748;52.240;6.002;2022-07-23T11:49:58;27.10;91.80
25951;DHT22;13748;52.240;6.002;2022-07-23T11:52:25;27.30;92.60
25951;DHT22;13748;52.240;6.002;2022-07-23T11:54:55;27.20;93.00
25951;DHT22;13748;52.240;6.002;2022-07-23T11:57:31;27.20;93.00
25951;DHT22;13748;52.240;6.002;2022-07-23T12:00:19;27.20;93.10
25951;DHT22;13748;52.240;6.002;2022-07-23T12:03:00;27.40;93.20
25951;DHT22;13748;52.240;6.002;2022-07-23T12:05:31;27.40;92.70
25951;DHT22;13748;52.240;6.002;2022-07-23T12:07:59;27.50;92.30
25951;DHT22;13748;52.240;6.002;2022-07-23T12:10:39;27.70;93.00
25951;DHT22;13748;52.240;6.002;2022-07-23T12:13:09;27.90;93.00
25951;DHT22;13748;52.240;6.002;2022-07-23T12:15:42;28.10;92.10
25951;DHT22;13748;52.240;6.002;2022-07-23T12:18:15;28.20;91.70
25951;DHT22;13748;52.240;6.002;2022-07-23T12:20:45;28.20;91.40
25951;DHT22;13748;52.240;6.002;2022-07-23T12:23:21;28.10;91.30
25951;DHT22;13748;52.240;6.002;2022-07-23T12:25:50;28.10;91.40
25951;DHT22;13748;52.240;6.002;2022-07-23T12:28:21;28.10;91.90
25951;DHT22;13748;52.240;6.002;2022-07-23T12:30:53;28.10;91.70
25951;DHT22;13748;52.240;6.002;2022-07-23T12:33:33;27.90;91.60
25951;DHT22;13748;52.240;6.002;2022-07-23T12:36:03;27.60;91.80
25951;DHT22;13748;52.240;6.002;2022-07-23T12:38:46;27.50;91.70
25951;DHT22;13748;52.240;6.002;2022-07-23T12:41:17;27.60;92.00
25951;DHT22;13748;52.240;6.002;2022-07-23T12:43:46;27.70;92.60
25951;DHT22;13748;52.240;6.002;2022-07-23T12:46:15;27.90;92.00
25951;DHT22;13748;52.240;6.002;2022-07-23T12:51:29;27.70;92.40
25951;DHT22;13748;52.240;6.002;2022-07-23T12:54:03;27.60;92.30
25951;DHT22;13748;52.240;6.002;2022-07-23T12:56:33;27.80;92.20
25951;DHT22;13748;52.240;6.002;2022-07-23T13:01:35;28.40;92.80
25951;DHT22;13748;52.240;6.002;2022-07-23T13:04:12;28.60;91.60
25951;DHT22;13748;52.240;6.002;2022-07-23T13:06:45;28.90;90.90
25951;DHT22;13748;52.240;6.002;2022-07-23T13:09:18;28.90;90.50
25951;DHT22;13748;52.240;6.002;2022-07-23T13:11:46;28.70;90.70
25951;DHT22;13748;52.240;6.002;2022-07-23T13:14:14;28.60;91.20
25951;DHT22;13748;52.240;6.002;2022-07-23T13:16:43;28.40;90.50
25951;DHT22;13748;52.240;6.002;2022-07-23T13:19:11;28.20;90.70
25951;DHT22;13748;52.240;6.002;2022-07-23T13:21:40;28.10;90.70
25951;DHT22;13748;52.240;6.002;2022-07-23T13:24:09;28.10;90.70
25951;DHT22;13748;52.240;6.002;2022-07-23T13:26:37;28.30;91.10
25951;DHT22;13748;52.240;6.002;2022-07-23T13:29:05;28.50;91.00
25951;DHT22;13748;52.240;6.002;2022-07-23T13:31:37;28.60;91.30
25951;DHT22;13748;52.240;6.002;2022-07-23T13:34:06;28.70;91.20
25951;DHT22;13748;52.240;6.002;2022-07-23T13:36:35;28.60;90.30
25951;DHT22;13748;52.240;6.002;2022-07-23T13:39:03;28.40;90.10
25951;DHT22;13748;52.240;6.002;2022-07-23T13:41:32;28.00;90.20
25951;DHT22;13748;52.240;6.002;2022-07-23T13:43:59;27.70;90.50
25951;DHT22;13748;52.240;6.002;2022-07-23T13:46:28;27.60;90.80
25951;DHT22;13748;52.240;6.002;2022-07-23T13:48:55;27.40;90.90
25951;DHT22;13748;52.240;6.002;2022-07-23T13:51:22;27.40;90.90
25951;DHT22;13748;52.240;6.002;2022-07-23T13:53:51;27.60;91.00
25951;DHT22;13748;52.240;6.002;2022-07-23T13:56:19;27.60;90.90
25951;DHT22;13748;52.240;6.002;2022-07-23T13:58:47;27.50;90.70
25951;DHT22;13748;52.240;6.002;2022-07-23T14:01:14;27.40;90.80
25951;DHT22;13748;52.240;6.002;2022-07-23T14:03:44;27.30;90.70
25951;DHT22;13748;52.240;6.002;2022-07-23T14:06:11;27.40;91.00
25951;DHT22;13748;52.240;6.002;2022-07-23T14:08:43;27.50;90.60
25951;DHT22;13748;52.240;6.002;2022-07-23T14:11:11;27.60;90.70
25951;DHT22;13748;52.240;6.002;2022-07-23T14:13:38;27.60;90.90
25951;DHT22;13748;52.240;6.002;2022-07-23T14:16:05;27.80;90.50
25951;DHT22;13748;52.240;6.002;2022-07-23T14:18:35;28.00;90.50
25951;DHT22;13748;52.240;6.002;2022-07-23T14:21:03;28.10;90.10
25951;DHT22;13748;52.240;6.002;2022-07-23T14:23:32;28.10;89.90
25951;DHT22;13748;52.240;6.002;2022-07-23T14:26:02;28.10;90.20
25951;DHT22;13748;52.240;6.002;2022-07-23T14:28:32;28.20;90.20
25951;DHT22;13748;52.240;6.002;2022-07-23T14:31:01;28.20;90.00
25951;DHT22;13748;52.240;6.002;2022-07-23T14:33:29;28.30;90.40
25951;DHT22;13748;52.240;6.002;2022-07-23T14:35:56;28.30;90.60
25951;DHT22;13748;52.240;6.002;2022-07-23T14:38:25;28.40;90.60
25951;DHT22;13748;52.240;6.002;2022-07-23T14:40:51;28.40;90.70
25951;DHT22;13748;52.240;6.002;2022-07-23T14:43:19;28.30;90.60
25951;DHT22;13748;52.240;6.002;2022-07-23T14:45:46;28.30;90.60
25951;DHT22;13748;52.240;6.002;2022-07-23T14:48:14;28.20;90.90
25951;DHT22;13748;52.240;6.002;2022-07-23T14:50:41;28.20;90.70
25951;DHT22;13748;52.240;6.002;2022-07-23T14:53:08;28.10;90.70
25951;DHT22;13748;52.240;6.002;2022-07-23T14:55:36;28.20;90.90
25951;DHT22;13748;52.240;6.002;2022-07-23T14:58:03;28.30;90.80
25951;DHT22;13748;52.240;6.002;2022-07-23T15:00:33;28.20;90.50
25951;DHT22;13748;52.240;6.002;2022-07-23T15:03:00;28.10;90.60
25951;DHT22;13748;52.240;6.002;2022-07-23T15:05:27;28.00;90.80
25951;DHT22;13748;52.240;6.002;2022-07-23T15:07:55;27.90;90.90
25951;DHT22;13748;52.240;6.002;2022-07-23T15:10:22;27.80;90.60
25951;DHT22;13748;52.240;6.002;2022-07-23T15:12:49;27.60;91.00
25951;DHT22;13748;52.240;6.002;2022-07-23T15:15:17;27.50;90.70
25951;DHT22;13748;52.240;6.002;2022-07-23T15:17:44;27.40;90.80
25951;DHT22;13748;52.240;6.002;2022-07-23T15:20:33;27.40;90.90
25951;DHT22;13748;52.240;6.002;2022-07-23T15:23:06;27.30;91.10
25951;DHT22;13748;52.240;6.002;2022-07-23T15:25:34;27.20;91.00
25951;DHT22;13748;52.240;6.002;2022-07-23T15:28:03;27.10;91.10
25951;DHT22;13748;52.240;6.002;2022-07-23T15:30:33;27.00;91.40
25951;DHT22;13748;52.240;6.002;2022-07-23T15:33:04;27.00;91.50
25951;DHT22;13748;52.240;6.002;2022-07-23T15:35:32;26.90;91.70
25951;DHT22;13748;52.240;6.002;2022-07-23T15:38:04;26.90;92.30
25951;DHT22;13748;52.240;6.002;2022-07-23T15:40:38;26.90;92.90
25951;DHT22;13748;52.240;6.002;2022-07-23T15:43:05;27.00;93.20
25951;DHT22;13748;52.240;6.002;2022-07-23T15:45:33;27.10;93.50
25951;DHT22;13748;52.240;6.002;2022-07-23T15:48:03;27.10;93.20
25951;DHT22;13748;52.240;6.002;2022-07-23T15:50:30;27.10;93.20
25951;DHT22;13748;52.240;6.002;2022-07-23T15:53:00;27.10;93.40
25951;DHT22;13748;52.240;6.002;2022-07-23T15:55:28;27.00;93.30
25951;DHT22;13748;52.240;6.002;2022-07-23T15:57:55;27.00;93.10
25951;DHT22;13748;52.240;6.002;2022-07-23T16:00:22;27.00;93.30
25951;DHT22;13748;52.240;6.002;2022-07-23T16:02:49;26.90;92.80
25951;DHT22;13748;52.240;6.002;2022-07-23T16:05:16;26.90;92.80
25951;DHT22;13748;52.240;6.002;2022-07-23T16:08:03;26.80;92.70
25951;DHT22;13748;52.240;6.002;2022-07-23T16:10:32;26.70;93.00
25951;DHT22;13748;52.240;6.002;2022-07-23T16:13:02;26.60;93.40
25951;DHT22;13748;52.240;6.002;2022-07-23T16:15:30;26.50;93.50
25951;DHT22;13748;52.240;6.002;2022-07-23T16:18:00;26.40;93.80
25951;DHT22;13748;52.240;6.002;2022-07-23T16:20:27;26.40;93.90
25951;DHT22;13748;52.240;6.002;2022-07-23T16:22:56;26.40;94.20
25951;DHT22;13748;52.240;6.002;2022-07-23T16:25:24;26.30;94.70
25951;DHT22;13748;52.240;6.002;2022-07-23T16:27:53;26.30;94.70
25951;DHT22;13748;52.240;6.002;2022-07-23T16:30:22;26.40;94.40
25951;DHT22;13748;52.240;6.002;2022-07-23T16:32:49;26.60;93.70
25951;DHT22;13748;52.240;6.002;2022-07-23T16:35:18;26.50;93.80
25951;DHT22;13748;52.240;6.002;2022-07-23T16:37:45;26.40;93.50
25951;DHT22;13748;52.240;6.002;2022-07-23T16:40:15;26.30;93.80
25951;DHT22;13748;52.240;6.002;2022-07-23T16:42:42;26.20;94.20